Portada
METAR-TAF:

METAR-TAF

Aeroports :

Juazeiro do Norte, Ceará, Brasil

latitud: 07-13-06S, longitud: 039-16-18W, altitud: 424 m

Observació

L'informe es va fer fa 1 hora i 8 minuts, a les 19:00 UTC
Vent 10 kt del Sud
Temperatura 36°C
Humitat 15%
Pressió 1011 hPa
Visibilitat 10 km o més
Escasses núvols a una alçada de 2400 ft

METAR: SBJU 131900Z 18010KT 9999 FEW024 36/05 Q1011

Hora: 17:08 (20:08 UTC)


TAF: manca

Observacions i pronòstics meteorològics de més de 4000 aeroports (METAR i TAF).

Les estacions disponibles són els punts grocs i vermells al mapa.

Posi el ratolí al punt desitjat per veure el nom de l'estació.

Feu clic per veure les observacions i els pronòstics meteorològics.

Per canviar el mapa: feu clic els botons verds amb una creu de color negre per apropar; al botó verd amb un guió per allunyar la imatge; o en les fletxes verdes per a mapes adjacents.


METAR-TAF: